createdAt,value
2023-08-24T00:00:09.055Z,77.48
2023-08-24T00:02:43.082Z,76.96
2023-08-24T00:05:16.384Z,77.51
2023-08-24T00:07:50.524Z,77.54
2023-08-24T00:10:23.853Z,77.13
2023-08-24T00:12:57.001Z,77.37
2023-08-24T00:15:31.932Z,76.95
2023-08-24T00:18:06.131Z,77.10
2023-08-24T00:20:39.393Z,76.49
2023-08-24T00:23:12.724Z,76.40
2023-08-24T00:25:45.965Z,76.43
2023-08-24T00:28:19.125Z,76.42
2023-08-24T00:30:53.667Z,76.12
2023-08-24T00:33:26.904Z,76.55
2023-08-24T00:36:02.763Z,76.80
2023-08-24T00:38:36.060Z,76.78
2023-08-24T00:41:09.290Z,75.98
2023-08-24T00:43:42.501Z,76.08
2023-08-24T00:46:17.091Z,76.18
2023-08-24T00:48:50.733Z,76.12
2023-08-24T00:51:23.968Z,76.82
2023-08-24T00:53:59.566Z,77.38
2023-08-24T00:56:33.273Z,78.30
2023-08-24T00:59:06.967Z,78.34
2023-08-24T01:01:45.365Z,78.23
2023-08-24T01:04:20.418Z,78.23
2023-08-24T01:06:53.612Z,78.07
2023-08-24T01:09:27.083Z,78.70
2023-08-24T01:12:07.295Z,79.09
2023-08-24T01:14:51.522Z,78.13
2023-08-24T01:17:30.752Z,77.54
2023-08-24T01:20:06.969Z,77.52
2023-08-24T01:22:49.646Z,78.57
2023-08-24T01:25:35.600Z,78.58
2023-08-24T01:28:12.662Z,79.12
2023-08-24T01:30:46.798Z,79.04
2023-08-24T01:33:20.094Z,77.92
2023-08-24T01:35:53.390Z,77.71
2023-08-24T01:38:26.954Z,77.90
2023-08-24T01:41:13.596Z,77.92
2023-08-24T01:43:54.740Z,78.01
2023-08-24T01:46:30.248Z,77.87
2023-08-24T01:49:07.909Z,78.57
2023-08-24T01:51:44.345Z,78.34
2023-08-24T01:54:17.463Z,77.20
2023-08-24T01:56:50.688Z,77.22
2023-08-24T01:59:25.329Z,77.43
2023-08-24T02:01:58.556Z,77.14
2023-08-24T02:04:31.793Z,77.44
2023-08-24T02:07:05.013Z,78.12
2023-08-24T02:09:38.156Z,78.69
2023-08-24T02:12:11.369Z,78.95
2023-08-24T02:14:45.949Z,78.84
2023-08-24T02:17:19.480Z,78.28
2023-08-24T02:19:52.639Z,78.24
2023-08-24T02:22:25.848Z,78.14
2023-08-24T02:24:59.095Z,77.96
2023-08-24T02:27:32.257Z,77.79
2023-08-24T02:30:08.288Z,77.76
2023-08-24T02:32:44.768Z,76.68
2023-08-24T02:35:18.551Z,76.60
2023-08-24T02:37:58.134Z,76.73
2023-08-24T02:40:31.422Z,76.19
2023-08-24T02:43:05.670Z,76.13
2023-08-24T02:45:40.302Z,75.48
2023-08-24T02:48:13.492Z,75.74
2023-08-24T02:50:48.707Z,75.19
2023-08-24T02:53:21.864Z,74.69
2023-08-24T02:55:55.065Z,74.35
2023-08-24T02:58:28.718Z,74.77
2023-08-24T03:01:07.578Z,74.96
2023-08-24T03:03:40.855Z,75.50
2023-08-24T03:06:13.991Z,75.86
2023-08-24T03:08:47.164Z,76.33
2023-08-24T03:11:20.432Z,76.46
2023-08-24T03:13:53.552Z,75.96
2023-08-24T03:16:28.903Z,76.29
2023-08-24T03:19:02.185Z,75.93
2023-08-24T03:21:35.422Z,75.31
2023-08-24T03:24:12.201Z,74.51
2023-08-24T03:26:46.476Z,74.28
2023-08-24T03:29:19.714Z,75.40
2023-08-24T03:31:54.665Z,75.63
2023-08-24T03:34:28.461Z,75.83
2023-08-24T03:37:01.756Z,76.87
2023-08-24T03:39:34.965Z,78.24
2023-08-24T03:42:08.741Z,77.51
2023-08-24T03:44:41.914Z,76.67
2023-08-24T03:47:16.454Z,75.91
2023-08-24T03:49:49.719Z,77.21
2023-08-24T03:52:23.255Z,78.62
2023-08-24T03:54:58.845Z,78.52
2023-08-24T03:57:32.936Z,78.95
2023-08-24T04:00:08.819Z,79.14
2023-08-24T04:02:48.407Z,77.53
2023-08-24T04:05:30.021Z,78.78
2023-08-24T04:08:03.520Z,78.97
2023-08-24T04:10:36.694Z,79.60
2023-08-24T04:13:12.379Z,79.60
2023-08-24T04:15:45.576Z,80.26
2023-08-24T04:18:20.171Z,80.22
2023-08-24T04:20:54.612Z,80.90
2023-08-24T04:23:28.321Z,80.45
2023-08-24T04:26:01.529Z,80.34
2023-08-24T04:28:34.746Z,80.54
2023-08-24T04:31:08.236Z,81.74
2023-08-24T04:33:42.883Z,81.11
2023-08-24T04:36:16.436Z,80.50
2023-08-24T04:38:50.108Z,80.06
2023-08-24T04:41:23.365Z,80.60
2023-08-24T04:43:58.935Z,80.31
2023-08-24T04:46:32.182Z,80.59
2023-08-24T04:49:06.846Z,81.23
2023-08-24T04:51:40.060Z,81.29
2023-08-24T04:54:13.209Z,81.15
2023-08-24T04:56:46.416Z,81.92
2023-08-24T04:59:19.630Z,80.99
2023-08-24T05:01:52.864Z,80.99
2023-08-24T05:04:27.509Z,80.39
2023-08-24T05:07:01.333Z,80.64
2023-08-24T05:09:34.741Z,81.26
2023-08-24T05:12:08.851Z,80.48
2023-08-24T05:14:42.842Z,80.78
2023-08-24T05:17:16.022Z,80.94
2023-08-24T05:19:53.279Z,80.94
2023-08-24T05:22:26.502Z,80.42
2023-08-24T05:24:59.711Z,80.41
2023-08-24T05:27:33.707Z,80.91
2023-08-24T05:30:08.048Z,79.94
2023-08-24T05:32:41.525Z,80.53
2023-08-24T05:35:17.252Z,81.11
2023-08-24T05:37:50.740Z,81.40
2023-08-24T05:40:24.126Z,81.25
2023-08-24T05:42:57.267Z,81.38
2023-08-24T05:45:30.405Z,80.42
2023-08-24T05:48:04.458Z,80.28
2023-08-24T05:50:44.250Z,79.87
2023-08-24T05:53:17.424Z,79.54
2023-08-24T05:55:50.520Z,79.36
2023-08-24T05:58:23.688Z,78.97
2023-08-24T06:01:00.352Z,79.10
2023-08-24T06:03:33.661Z,76.28
2023-08-24T06:06:11.129Z,75.62
2023-08-24T06:08:44.617Z,74.59
2023-08-24T06:11:17.711Z,73.03
2023-08-24T06:13:50.862Z,72.35
2023-08-24T06:16:26.310Z,72.37
2023-08-24T06:18:59.473Z,70.67
2023-08-24T06:21:34.031Z,71.32
2023-08-24T06:24:07.430Z,71.14
2023-08-24T06:26:40.612Z,70.71
2023-08-24T06:29:13.994Z,70.59
2023-08-24T06:31:47.166Z,70.92
2023-08-24T06:34:20.423Z,69.38
2023-08-24T06:36:55.811Z,69.86
2023-08-24T06:39:28.984Z,70.33
2023-08-24T06:42:03.590Z,68.96
2023-08-24T06:44:37.883Z,68.60
2023-08-24T06:47:11.082Z,67.99
2023-08-24T06:49:44.393Z,67.94
2023-08-24T06:52:18.977Z,66.90
2023-08-24T06:54:54.788Z,66.13
2023-08-24T06:57:28.105Z,65.94
2023-08-24T07:00:01.396Z,65.89
2023-08-24T07:02:34.878Z,65.56
2023-08-24T07:05:09.943Z,65.74
2023-08-24T07:07:45.529Z,66.01
2023-08-24T07:10:18.982Z,66.37
2023-08-24T07:12:52.173Z,67.65
2023-08-24T07:15:25.591Z,69.44
2023-08-24T07:17:58.806Z,69.21
2023-08-24T07:20:31.958Z,69.51
2023-08-24T07:23:06.641Z,69.47
2023-08-24T07:25:39.766Z,68.52
2023-08-24T07:28:12.974Z,67.82
2023-08-24T07:30:46.329Z,67.58
2023-08-24T07:33:21.328Z,66.71
2023-08-24T07:35:54.485Z,65.40
2023-08-24T07:38:29.029Z,64.86
2023-08-24T07:41:02.400Z,62.89
2023-08-24T07:43:35.817Z,62.97
2023-08-24T07:46:09.306Z,62.86
2023-08-24T07:48:42.600Z,61.97
2023-08-24T07:51:15.827Z,61.04
2023-08-24T07:53:51.878Z,60.13
2023-08-24T07:56:25.154Z,58.83
2023-08-24T07:58:58.378Z,57.58
2023-08-24T08:01:31.824Z,56.64
2023-08-24T08:04:05.409Z,55.34
2023-08-24T08:06:38.659Z,55.61
2023-08-24T08:09:14.028Z,56.01
2023-08-24T08:11:47.811Z,54.76
2023-08-24T08:14:21.229Z,53.86
2023-08-24T08:16:54.442Z,53.28
2023-08-24T08:19:29.169Z,54.40
2023-08-24T08:22:02.337Z,54.46
2023-08-24T08:24:36.964Z,52.77
2023-08-24T08:27:10.399Z,52.35
2023-08-24T08:29:43.908Z,51.56
2023-08-24T08:32:17.069Z,50.37
2023-08-24T08:34:50.243Z,50.23
2023-08-24T08:37:23.458Z,50.13
2023-08-24T08:39:58.152Z,50.54
2023-08-24T08:42:32.314Z,50.43
2023-08-24T08:45:11.406Z,50.11
2023-08-24T08:47:44.685Z,50.01
2023-08-24T08:50:18.281Z,50.31
2023-08-24T08:52:51.428Z,49.18
2023-08-24T08:55:25.994Z,49.07
2023-08-24T08:58:02.724Z,50.54
2023-08-24T09:00:37.420Z,48.71
2023-08-24T09:03:11.535Z,49.09
2023-08-24T09:05:47.810Z,49.75
2023-08-24T09:08:21.316Z,47.46
2023-08-24T09:10:56.222Z,49.16
2023-08-24T09:13:33.622Z,48.64
2023-08-24T09:16:08.834Z,47.74
2023-08-24T09:18:45.300Z,49.01
2023-08-24T09:21:18.577Z,47.69
2023-08-24T09:23:55.879Z,47.99
2023-08-24T09:26:35.770Z,48.41
2023-08-24T09:29:14.431Z,47.83
2023-08-24T09:31:47.652Z,48.03
2023-08-24T09:34:22.521Z,48.23
2023-08-24T09:36:55.727Z,46.33
2023-08-24T09:39:28.900Z,47.61
2023-08-24T09:42:05.813Z,48.57
2023-08-24T09:44:38.956Z,48.40
2023-08-24T09:47:13.098Z,47.69
2023-08-24T09:49:47.976Z,46.98
2023-08-24T09:52:22.490Z,49.09
2023-08-24T09:54:56.643Z,49.09
2023-08-24T09:57:31.281Z,49.30
2023-08-24T10:00:11.005Z,48.11
2023-08-24T10:02:52.717Z,49.27
2023-08-24T10:08:03.951Z,49.24
2023-08-24T10:10:40.630Z,49.09
2023-08-24T10:13:23.054Z,50.06
2023-08-24T10:15:58.635Z,51.30
2023-08-24T10:18:34.597Z,51.63
2023-08-24T10:21:09.375Z,50.06
2023-08-24T10:23:45.666Z,51.00
2023-08-24T10:26:19.865Z,51.62
2023-08-24T10:28:55.554Z,51.80
2023-08-24T10:31:30.337Z,52.01
2023-08-24T10:34:05.058Z,52.42
2023-08-24T10:36:41.412Z,51.84
2023-08-24T10:39:14.917Z,52.55
2023-08-24T10:41:49.689Z,52.29
2023-08-24T10:44:26.430Z,53.59
2023-08-24T10:47:15.830Z,54.49
2023-08-24T10:50:02.193Z,55.37
2023-08-24T10:52:40.340Z,55.16
2023-08-24T10:55:28.096Z,56.94
2023-08-24T10:58:02.212Z,58.98
2023-08-24T11:00:36.819Z,61.21
2023-08-24T11:03:11.153Z,62.33
2023-08-24T11:05:45.039Z,62.37
2023-08-24T11:08:18.255Z,63.65
2023-08-24T11:10:51.816Z,63.65
2023-08-24T11:13:26.101Z,65.35
2023-08-24T11:16:05.840Z,67.06
2023-08-24T11:18:42.278Z,67.13
2023-08-24T11:21:16.204Z,67.91
2023-08-24T11:23:50.781Z,69.08
2023-08-24T11:26:24.034Z,71.33
2023-08-24T11:28:58.906Z,72.01
2023-08-24T11:31:34.819Z,74.53
2023-08-24T11:34:09.751Z,75.90
2023-08-24T11:36:48.379Z,78.28
2023-08-24T11:39:23.872Z,79.67
2023-08-24T11:42:01.687Z,79.21
2023-08-24T11:44:47.871Z,79.27
2023-08-24T11:47:24.844Z,80.21
2023-08-24T11:49:59.919Z,80.56
2023-08-24T11:52:37.180Z,80.10
2023-08-24T11:55:10.954Z,81.01
2023-08-24T11:57:44.750Z,80.56
2023-08-24T12:00:19.088Z,80.06
2023-08-24T12:02:54.142Z,79.15
2023-08-24T12:05:29.424Z,80.91
2023-08-24T12:08:02.698Z,79.70
2023-08-24T12:10:36.851Z,80.02
2023-08-24T12:13:12.887Z,80.45
2023-08-24T12:15:48.407Z,79.54
2023-08-24T12:18:23.046Z,78.87
2023-08-24T12:20:56.304Z,79.33
2023-08-24T12:23:31.721Z,78.48
2023-08-24T12:26:06.591Z,78.25
2023-08-24T12:28:39.758Z,78.20
2023-08-24T12:31:16.745Z,77.35
2023-08-24T12:34:02.475Z,77.24
2023-08-24T12:36:38.039Z,76.70
2023-08-24T12:39:15.052Z,76.24
2023-08-24T12:41:48.213Z,77.72
2023-08-24T12:44:21.326Z,77.46
2023-08-24T12:46:54.536Z,76.70
2023-08-24T12:49:29.122Z,75.80
2023-08-24T12:52:02.293Z,77.16
2023-08-24T12:54:35.518Z,75.80
2023-08-24T12:57:09.397Z,74.12
2023-08-24T12:59:42.667Z,75.30
2023-08-24T13:02:25.211Z,78.28
2023-08-24T13:05:05.456Z,78.05
2023-08-24T13:07:40.133Z,79.47
2023-08-24T13:10:14.009Z,77.27
2023-08-24T13:12:47.088Z,78.84
2023-08-24T13:15:21.221Z,77.48
2023-08-24T13:17:54.643Z,77.67
2023-08-24T13:20:29.319Z,78.92
2023-08-24T13:23:02.442Z,78.47
2023-08-24T13:25:35.530Z,77.87
2023-08-24T13:28:08.733Z,78.54
2023-08-24T13:30:43.934Z,77.15
2023-08-24T13:33:20.743Z,77.81
2023-08-24T13:35:55.215Z,77.74
2023-08-24T13:38:28.315Z,78.29
2023-08-24T13:41:04.707Z,77.07
2023-08-24T13:43:37.773Z,77.67
2023-08-24T13:46:10.887Z,77.37
2023-08-24T13:48:44.022Z,77.25
2023-08-24T13:51:19.172Z,79.10
2023-08-24T13:53:52.322Z,79.49
2023-08-24T13:56:25.407Z,80.21
2023-08-24T13:58:58.551Z,80.54
2023-08-24T14:01:31.704Z,80.43
2023-08-24T14:04:05.502Z,81.62
2023-08-24T14:06:40.149Z,82.00
2023-08-24T14:09:13.269Z,82.54
2023-08-24T14:11:46.439Z,81.92
2023-08-24T14:14:21.889Z,82.54
2023-08-24T14:16:58.335Z,82.35
2023-08-24T14:19:31.506Z,82.34
2023-08-24T14:22:06.052Z,82.43
2023-08-24T14:24:39.118Z,83.17
2023-08-24T14:27:12.242Z,82.70
2023-08-24T14:29:45.307Z,82.47
2023-08-24T14:32:18.940Z,82.75
2023-08-24T14:34:52.061Z,84.02
2023-08-24T14:37:26.701Z,83.39
2023-08-24T14:39:59.863Z,84.43
2023-08-24T14:42:32.952Z,83.76
2023-08-24T14:45:07.042Z,83.85
2023-08-24T14:47:40.686Z,84.73
2023-08-24T14:50:14.121Z,83.48
2023-08-24T14:52:48.764Z,85.04
2023-08-24T14:55:21.857Z,84.54
2023-08-24T14:57:56.328Z,84.69
2023-08-24T15:00:29.558Z,84.99
2023-08-24T15:03:05.871Z,83.65
2023-08-24T15:05:45.143Z,83.41
2023-08-24T15:08:19.712Z,83.43
2023-08-24T15:10:52.873Z,83.72
2023-08-24T15:13:26.101Z,82.79
2023-08-24T15:16:00.693Z,83.43
2023-08-24T15:18:33.850Z,83.18
2023-08-24T15:21:06.926Z,82.52
2023-08-24T15:23:41.390Z,82.58
2023-08-24T15:26:14.550Z,82.84
2023-08-24T15:29:10.337Z,82.40
2023-08-24T15:31:43.857Z,82.42
2023-08-24T15:34:17.037Z,82.05
2023-08-24T15:36:50.170Z,81.21
2023-08-24T15:39:25.127Z,81.40
2023-08-24T15:41:58.296Z,82.27
2023-08-24T15:44:31.468Z,81.56
2023-08-24T15:47:04.813Z,81.43
2023-08-24T15:49:38.719Z,80.14
2023-08-24T15:52:11.850Z,80.64
2023-08-24T15:54:46.412Z,79.90
2023-08-24T15:57:19.720Z,78.44
2023-08-24T15:59:52.943Z,77.73
2023-08-24T16:02:26.233Z,78.36
2023-08-24T16:04:59.475Z,76.69
2023-08-24T16:07:32.698Z,77.08
2023-08-24T16:10:08.258Z,77.00
2023-08-24T16:12:41.732Z,76.29
2023-08-24T16:15:18.116Z,76.72
2023-08-24T16:17:51.670Z,75.10
2023-08-24T16:20:25.103Z,74.14
2023-08-24T16:22:58.340Z,74.95
2023-08-24T16:25:33.392Z,74.75
2023-08-24T16:28:07.430Z,74.46
2023-08-24T16:30:42.995Z,75.22
2023-08-24T16:33:16.572Z,73.95
2023-08-24T16:35:50.143Z,73.58
2023-08-24T16:38:23.335Z,75.54
2023-08-24T16:40:58.305Z,73.92
2023-08-24T16:43:32.727Z,75.41
2023-08-24T16:46:05.907Z,75.92
2023-08-24T16:48:39.067Z,73.82
2023-08-24T16:51:12.232Z,73.73
2023-08-24T16:53:45.386Z,73.53
2023-08-24T16:56:19.937Z,74.69
2023-08-24T16:58:53.115Z,75.24
2023-08-24T17:01:26.442Z,74.53
2023-08-24T17:03:59.692Z,74.71
2023-08-24T17:06:35.394Z,75.20
2023-08-24T17:09:10.023Z,74.04
2023-08-24T17:11:44.596Z,75.34
2023-08-24T17:14:17.795Z,74.88
2023-08-24T17:16:51.396Z,74.43
2023-08-24T17:19:24.497Z,72.97
2023-08-24T17:21:57.555Z,75.08
2023-08-24T17:24:30.639Z,74.28
2023-08-24T17:27:05.228Z,74.49
2023-08-24T17:29:38.330Z,77.04
2023-08-24T17:32:11.413Z,77.21
2023-08-24T17:34:44.512Z,76.55
2023-08-24T17:37:17.632Z,75.17
2023-08-24T17:39:50.772Z,77.04
2023-08-24T17:42:25.221Z,77.18
2023-08-24T17:44:58.350Z,76.88
2023-08-24T17:47:31.478Z,77.62
2023-08-24T17:50:06.078Z,77.32
2023-08-24T17:52:39.165Z,77.06
2023-08-24T17:55:12.754Z,77.70
2023-08-24T17:57:47.282Z,78.08
2023-08-24T18:00:20.930Z,77.66
2023-08-24T18:02:54.126Z,76.77
2023-08-24T18:05:27.177Z,77.51
2023-08-24T18:08:00.538Z,77.54
2023-08-24T18:10:33.826Z,76.33
2023-08-24T18:13:08.437Z,76.99
2023-08-24T18:15:41.696Z,77.07
2023-08-24T18:18:14.861Z,76.56
2023-08-24T18:20:48.041Z,77.10
2023-08-24T18:23:21.136Z,77.40
2023-08-24T18:25:54.357Z,78.25
2023-08-24T18:28:28.848Z,78.47
2023-08-24T18:31:03.035Z,79.35
2023-08-24T18:33:36.306Z,79.39
2023-08-24T18:36:09.508Z,80.16
2023-08-24T18:38:42.709Z,80.42
2023-08-24T18:41:15.966Z,80.74
2023-08-24T18:43:50.462Z,80.95
2023-08-24T18:46:23.734Z,80.63
2023-08-24T18:48:56.910Z,80.86
2023-08-24T18:51:30.393Z,81.77
2023-08-24T18:54:03.624Z,82.20
2023-08-24T18:56:36.757Z,81.59
2023-08-24T18:59:11.334Z,81.95
2023-08-24T19:01:44.571Z,82.23
2023-08-24T19:04:17.789Z,82.40
2023-08-24T19:06:53.433Z,83.31
2023-08-24T19:09:26.589Z,83.59
2023-08-24T19:11:59.751Z,83.39
2023-08-24T19:14:36.614Z,83.58
2023-08-24T19:17:09.946Z,83.78
2023-08-24T19:19:43.065Z,84.11
2023-08-24T19:22:16.237Z,83.61
2023-08-24T19:24:49.422Z,83.50
2023-08-24T19:27:24.328Z,84.04
2023-08-24T19:29:59.369Z,83.30
2023-08-24T19:32:32.583Z,83.39
2023-08-24T19:35:06.413Z,83.30
2023-08-24T19:37:39.574Z,83.49
2023-08-24T19:40:13.513Z,83.85
2023-08-24T19:42:47.516Z,83.90
2023-08-24T19:45:22.075Z,84.29
2023-08-24T19:47:55.502Z,84.39
2023-08-24T19:50:29.693Z,84.88
2023-08-24T19:53:03.325Z,84.64
2023-08-24T19:55:36.433Z,84.59
2023-08-24T19:58:09.702Z,84.52
2023-08-24T20:00:44.251Z,84.43
2023-08-24T20:03:17.595Z,83.90
2023-08-24T20:05:55.603Z,84.27
2023-08-24T20:08:29.072Z,84.52
2023-08-24T20:11:02.737Z,84.29
2023-08-24T20:13:35.853Z,84.78
2023-08-24T20:16:10.391Z,84.89
2023-08-24T20:18:44.979Z,85.10
2023-08-24T20:21:18.233Z,85.18
2023-08-24T20:23:51.498Z,84.91
2023-08-24T20:26:25.039Z,85.51
2023-08-24T20:28:58.200Z,85.35
2023-08-24T20:31:35.299Z,84.76
2023-08-24T20:34:08.514Z,84.44
2023-08-24T20:36:41.716Z,83.81
2023-08-24T20:39:14.918Z,83.68
2023-08-24T20:41:48.396Z,84.24
2023-08-24T20:44:22.079Z,84.40
2023-08-24T20:46:56.624Z,84.51
2023-08-24T20:49:30.595Z,84.56
2023-08-24T20:52:04.579Z,84.49
2023-08-24T20:54:37.724Z,84.83
2023-08-24T20:57:10.929Z,85.01
2023-08-24T20:59:47.229Z,84.83
2023-08-24T21:02:21.737Z,84.62
2023-08-24T21:04:56.000Z,84.66
2023-08-24T21:07:30.095Z,84.54
2023-08-24T21:10:03.507Z,84.62
2023-08-24T21:12:36.634Z,84.40
2023-08-24T21:15:10.575Z,84.24
2023-08-24T21:17:45.189Z,84.42
2023-08-24T21:20:20.568Z,84.79
2023-08-24T21:22:53.799Z,84.41
2023-08-24T21:25:26.975Z,83.82
2023-08-24T21:28:00.104Z,83.42
2023-08-24T21:30:35.511Z,83.59
2023-08-24T21:33:10.098Z,83.72
2023-08-24T21:35:43.364Z,83.54
2023-08-24T21:38:16.462Z,83.46
2023-08-24T21:40:50.625Z,83.82
2023-08-24T21:43:24.035Z,84.20
2023-08-24T21:45:57.872Z,84.59
2023-08-24T21:48:32.458Z,84.27
2023-08-24T21:51:05.622Z,84.06
2023-08-24T21:53:38.944Z,84.52
2023-08-24T21:56:12.153Z,84.56
2023-08-24T21:58:45.318Z,84.38
2023-08-24T22:01:19.075Z,84.42
2023-08-24T22:03:53.663Z,84.64
2023-08-24T22:06:26.842Z,84.07
2023-08-24T22:08:59.949Z,84.19
2023-08-24T22:11:33.147Z,83.89
2023-08-24T22:14:06.336Z,84.14
2023-08-24T22:16:39.567Z,84.05
2023-08-24T22:19:24.881Z,84.15
2023-08-24T22:22:00.099Z,84.17
2023-08-24T22:24:33.268Z,84.10
2023-08-24T22:27:07.040Z,83.54
2023-08-24T22:29:40.192Z,83.92
2023-08-24T22:32:13.423Z,84.17
2023-08-24T22:34:47.922Z,84.27
2023-08-24T22:37:21.279Z,84.61
2023-08-24T22:39:55.351Z,84.66
2023-08-24T22:42:28.554Z,84.53
2023-08-24T22:45:01.659Z,84.26
2023-08-24T22:47:35.530Z,84.44
2023-08-24T22:50:12.129Z,84.23
2023-08-24T22:52:45.526Z,84.19
2023-08-24T22:55:18.721Z,83.85
2023-08-24T22:57:52.048Z,83.81
2023-08-24T23:00:25.504Z,83.61
2023-08-24T23:02:58.688Z,83.55
2023-08-24T23:05:33.521Z,83.81
2023-08-24T23:08:08.157Z,83.59
2023-08-24T23:10:41.381Z,83.55
2023-08-24T23:13:14.529Z,83.59
2023-08-24T23:15:47.752Z,83.84
2023-08-24T23:18:20.962Z,84.00
2023-08-24T23:20:55.506Z,84.07
2023-08-24T23:23:29.253Z,84.32
2023-08-24T23:26:02.403Z,84.44
2023-08-24T23:28:35.568Z,84.17
2023-08-24T23:31:08.798Z,84.18
2023-08-24T23:33:42.049Z,83.81
2023-08-24T23:36:16.740Z,83.97
2023-08-24T23:38:49.881Z,84.19
2023-08-24T23:41:22.986Z,84.28
2023-08-24T23:43:56.153Z,83.96
2023-08-24T23:46:29.637Z,83.72
2023-08-24T23:49:02.823Z,83.39
2023-08-24T23:51:37.319Z,83.62
2023-08-24T23:54:10.650Z,83.58
2023-08-24T23:56:43.848Z,84.03
2023-08-24T23:59:17.046Z,84.45
